createdAt,value
2017-03-05T00:00:01.464Z,983.64
2017-03-05T00:01:01.481Z,983.65
2017-03-05T00:02:01.501Z,983.77
2017-03-05T00:03:01.518Z,983.74
2017-03-05T00:04:01.535Z,983.83
2017-03-05T00:05:01.553Z,983.91
2017-03-05T00:06:01.571Z,983.96
2017-03-05T00:07:01.588Z,983.96
2017-03-05T00:08:01.607Z,984
2017-03-05T00:09:01.626Z,984.01
2017-03-05T00:10:01.642Z,983.99
2017-03-05T00:11:01.658Z,983.95
2017-03-05T00:12:01.681Z,983.99
2017-03-05T00:13:01.694Z,984.04
2017-03-05T00:14:01.713Z,984.04
2017-03-05T00:15:01.734Z,984.09
2017-03-05T00:16:01.749Z,984.09
2017-03-05T00:17:01.766Z,984.04
2017-03-05T00:18:01.783Z,983.98
2017-03-05T00:19:01.802Z,984.05
2017-03-05T00:20:01.819Z,984.12
2017-03-05T00:21:01.837Z,984.02
2017-03-05T00:22:01.854Z,984.09
2017-03-05T00:23:01.873Z,984.15
2017-03-05T00:24:01.890Z,984.2
2017-03-05T00:25:01.908Z,984.2
2017-03-05T00:26:01.926Z,984.27
2017-03-05T00:27:01.944Z,984.3
2017-03-05T00:28:01.962Z,984.34
2017-03-05T00:29:01.978Z,984.37
2017-03-05T00:30:02.054Z,984.38
2017-03-05T00:31:02.016Z,984.41
2017-03-05T00:32:02.030Z,984.45
2017-03-05T00:33:02.049Z,984.43
2017-03-05T00:34:02.066Z,984.46
2017-03-05T00:35:02.084Z,984.47
2017-03-05T00:36:02.100Z,984.45
2017-03-05T00:37:02.119Z,984.45
2017-03-05T00:38:02.139Z,984.47
2017-03-05T00:39:02.155Z,984.42
2017-03-05T00:40:02.172Z,984.37
2017-03-05T00:41:02.188Z,984.48
2017-03-05T00:42:02.208Z,984.55
2017-03-05T00:43:02.226Z,984.59
2017-03-05T00:44:02.243Z,984.65
2017-03-05T00:45:02.262Z,984.71
2017-03-05T00:46:02.279Z,984.82
2017-03-05T00:47:02.296Z,984.86
2017-03-05T00:48:02.315Z,984.87
2017-03-05T00:49:02.332Z,984.96
2017-03-05T00:50:02.349Z,985
2017-03-05T00:51:02.365Z,985.01
2017-03-05T00:52:02.385Z,985.01
2017-03-05T00:53:02.401Z,985.03
2017-03-05T00:54:02.419Z,985
2017-03-05T00:55:02.436Z,984.97
2017-03-05T00:56:02.453Z,984.93
2017-03-05T00:57:02.471Z,984.92
2017-03-05T00:58:02.487Z,984.93
2017-03-05T00:59:02.508Z,984.86
2017-03-05T01:00:02.524Z,984.88
2017-03-05T01:01:02.541Z,984.84
2017-03-05T01:02:02.558Z,984.91
2017-03-05T01:03:02.577Z,984.93
2017-03-05T01:04:02.593Z,985.03
2017-03-05T01:05:02.612Z,985.09
2017-03-05T01:06:02.629Z,985.15
2017-03-05T01:07:02.647Z,985.19
2017-03-05T01:08:02.664Z,985.15
2017-03-05T01:09:02.681Z,985.15
2017-03-05T01:10:02.698Z,985.18
2017-03-05T01:11:02.716Z,985.19
2017-03-05T01:12:02.733Z,985.26
2017-03-05T01:13:02.753Z,985.27
2017-03-05T01:14:02.768Z,985.26
2017-03-05T01:15:02.785Z,985.24
2017-03-05T01:16:02.801Z,985.24
2017-03-05T01:17:02.820Z,985.25
2017-03-05T01:18:02.838Z,985.28
2017-03-05T01:19:02.854Z,985.31
2017-03-05T01:20:02.875Z,985.33
2017-03-05T01:21:02.890Z,985.39
2017-03-05T01:22:02.906Z,985.37
2017-03-05T01:23:02.923Z,985.37
2017-03-05T01:24:02.940Z,985.43
2017-03-05T01:25:02.958Z,985.45
2017-03-05T01:26:02.975Z,985.39
2017-03-05T01:27:02.992Z,985.42
2017-03-05T01:28:03.011Z,985.42
2017-03-05T01:29:03.028Z,985.38
2017-03-05T01:30:03.045Z,985.42
2017-03-05T01:31:03.062Z,985.41
2017-03-05T01:32:03.080Z,985.41
2017-03-05T01:33:03.096Z,985.43
2017-03-05T01:34:03.114Z,985.42
2017-03-05T01:35:03.133Z,985.36
2017-03-05T01:36:03.149Z,985.44
2017-03-05T01:37:03.165Z,985.47
2017-03-05T01:38:03.181Z,985.46
2017-03-05T01:39:03.200Z,985.48
2017-03-05T01:40:03.215Z,985.48
2017-03-05T01:41:03.237Z,985.52
2017-03-05T01:42:03.252Z,985.51
2017-03-05T01:43:03.368Z,985.5
2017-03-05T01:44:03.286Z,985.5
2017-03-05T01:45:03.305Z,985.58
2017-03-05T01:46:03.322Z,985.59
2017-03-05T01:47:03.338Z,985.6
2017-03-05T01:48:03.355Z,985.62
2017-03-05T01:49:03.375Z,985.64
2017-03-05T01:50:03.388Z,985.66
2017-03-05T01:51:03.409Z,985.64
2017-03-05T01:52:03.424Z,985.66
2017-03-05T01:53:03.440Z,985.65
2017-03-05T01:54:03.458Z,985.66
2017-03-05T01:55:03.477Z,985.68
2017-03-05T01:56:03.493Z,985.66
2017-03-05T01:57:03.511Z,985.72
2017-03-05T01:58:03.553Z,985.68
2017-03-05T01:59:03.545Z,985.66
2017-03-05T02:00:03.562Z,985.67
2017-03-05T02:01:03.580Z,985.66
2017-03-05T02:02:03.596Z,985.69
2017-03-05T02:03:03.613Z,985.67
2017-03-05T02:04:03.629Z,985.63
2017-03-05T02:05:03.647Z,985.65
2017-03-05T02:06:03.682Z,985.64
2017-03-05T02:07:03.682Z,985.62
2017-03-05T02:08:03.703Z,985.65
2017-03-05T02:09:03.717Z,985.64
2017-03-05T02:10:03.732Z,985.65
2017-03-05T02:11:03.751Z,985.69
2017-03-05T02:12:03.766Z,985.7
2017-03-05T02:13:03.786Z,985.7
2017-03-05T02:14:03.801Z,985.71
2017-03-05T02:15:03.818Z,985.69
2017-03-05T02:16:03.835Z,985.7
2017-03-05T02:17:03.853Z,985.69
2017-03-05T02:18:03.870Z,985.69
2017-03-05T02:19:03.888Z,985.77
2017-03-05T02:20:03.905Z,985.76
2017-03-05T02:21:03.922Z,985.77
2017-03-05T02:22:03.938Z,985.77
2017-03-05T02:23:03.956Z,985.78
2017-03-05T02:24:03.972Z,985.79
2017-03-05T02:25:03.989Z,985.8
2017-03-05T02:26:04.008Z,985.76
2017-03-05T02:27:04.024Z,985.82
2017-03-05T02:28:04.041Z,985.83
2017-03-05T02:29:04.058Z,985.82
2017-03-05T02:30:04.076Z,985.83
2017-03-05T02:31:04.094Z,985.85
2017-03-05T02:32:04.108Z,985.83
2017-03-05T02:33:04.131Z,985.85
2017-03-05T02:34:04.144Z,985.84
2017-03-05T02:35:04.162Z,985.88
2017-03-05T02:36:04.181Z,985.89
2017-03-05T02:37:04.195Z,985.88
2017-03-05T02:38:04.212Z,985.91
2017-03-05T02:39:04.228Z,985.88
2017-03-05T02:40:04.246Z,985.85
2017-03-05T02:41:04.261Z,985.89
2017-03-05T02:42:04.283Z,985.92
2017-03-05T02:43:04.296Z,985.89
2017-03-05T02:44:04.312Z,985.87
2017-03-05T02:45:04.330Z,985.88
2017-03-05T02:46:04.348Z,985.89
2017-03-05T02:47:04.364Z,985.96
2017-03-05T02:48:04.381Z,985.93
2017-03-05T02:49:04.398Z,985.92
2017-03-05T02:50:04.415Z,985.91
2017-03-05T02:51:04.431Z,985.92
2017-03-05T02:52:04.448Z,985.94
2017-03-05T02:53:04.466Z,985.94
2017-03-05T02:54:04.555Z,985.95
2017-03-05T02:55:04.499Z,985.92
2017-03-05T02:56:04.516Z,985.88
2017-03-05T02:57:04.532Z,985.86
2017-03-05T02:58:04.552Z,985.87
2017-03-05T02:59:04.568Z,985.86
2017-03-05T03:00:04.584Z,985.9
2017-03-05T03:01:04.600Z,985.91
2017-03-05T03:02:04.619Z,985.93
2017-03-05T03:03:04.652Z,985.94
2017-03-05T03:04:04.650Z,986
2017-03-05T03:05:04.689Z,986.01
2017-03-05T03:06:04.683Z,986.04
2017-03-05T03:07:04.719Z,986.07
2017-03-05T03:08:04.718Z,986.05
2017-03-05T03:09:04.751Z,986.03
2017-03-05T03:10:04.752Z,986.1
2017-03-05T03:11:04.782Z,986.12
2017-03-05T03:12:04.786Z,986.16
2017-03-05T03:13:04.814Z,986.12
2017-03-05T03:14:04.818Z,986.16
2017-03-05T03:15:04.848Z,986.18
2017-03-05T03:16:04.851Z,986.22
2017-03-05T03:17:04.876Z,986.25
2017-03-05T03:18:04.884Z,986.22
2017-03-05T03:19:04.921Z,986.27
2017-03-05T03:20:04.919Z,986.26
2017-03-05T03:21:04.950Z,986.28
2017-03-05T03:22:04.953Z,986.27
2017-03-05T03:23:04.994Z,986.24
2017-03-05T03:24:04.985Z,986.22
2017-03-05T03:25:05.024Z,986.23
2017-03-05T03:26:05.019Z,986.22
2017-03-05T03:27:05.053Z,986.27
2017-03-05T03:28:05.056Z,986.3
2017-03-05T03:29:05.091Z,986.33
2017-03-05T03:30:05.086Z,986.3
2017-03-05T03:31:05.111Z,986.3
2017-03-05T03:32:05.120Z,986.31
2017-03-05T03:33:05.146Z,986.34
2017-03-05T03:34:05.152Z,986.36
2017-03-05T03:35:05.190Z,986.36
2017-03-05T03:36:05.186Z,986.34
2017-03-05T03:37:05.221Z,986.33
2017-03-05T03:38:05.219Z,986.32
2017-03-05T03:39:05.265Z,986.36
2017-03-05T03:40:05.251Z,986.39
2017-03-05T03:41:05.269Z,986.38
2017-03-05T03:42:05.290Z,986.34
2017-03-05T03:43:05.313Z,986.35
2017-03-05T03:44:05.318Z,986.36
2017-03-05T03:45:05.352Z,986.39
2017-03-05T03:46:05.351Z,986.36
2017-03-05T03:47:05.387Z,986.41
2017-03-05T03:48:05.388Z,986.42
2017-03-05T03:49:05.418Z,986.45
2017-03-05T03:50:05.418Z,986.42
2017-03-05T03:51:05.441Z,986.45
2017-03-05T03:52:05.451Z,986.51
2017-03-05T03:53:05.488Z,986.53
2017-03-05T03:54:05.487Z,986.54
2017-03-05T03:55:05.520Z,986.54
2017-03-05T03:56:05.517Z,986.53
2017-03-05T03:57:05.556Z,986.6
2017-03-05T03:58:05.550Z,986.63
2017-03-05T03:59:05.583Z,986.57
2017-03-05T04:00:05.582Z,986.65
2017-03-05T04:01:05.620Z,986.63
2017-03-05T04:02:05.616Z,986.62
2017-03-05T04:03:05.647Z,986.7
2017-03-05T04:04:05.649Z,986.65
2017-03-05T04:05:05.675Z,986.73
2017-03-05T04:06:05.685Z,986.7
2017-03-05T04:07:05.721Z,986.74
2017-03-05T04:08:05.714Z,986.7
2017-03-05T04:09:05.752Z,986.78
2017-03-05T04:10:05.748Z,986.74
2017-03-05T04:11:05.783Z,986.85
2017-03-05T04:12:05.779Z,986.79
2017-03-05T04:13:05.815Z,986.8
2017-03-05T04:14:05.812Z,986.85
2017-03-05T04:15:05.849Z,986.83
2017-03-05T04:16:05.845Z,986.92
2017-03-05T04:17:05.880Z,986.93
2017-03-05T04:18:05.879Z,986.94
2017-03-05T04:19:05.924Z,986.93
2017-03-05T04:20:05.911Z,986.97
2017-03-05T04:21:05.952Z,987.02
2017-03-05T04:22:05.944Z,987.05
2017-03-05T04:23:05.983Z,987.05
2017-03-05T04:24:05.976Z,987.09
2017-03-05T04:25:06.012Z,987.13
2017-03-05T04:26:06.010Z,987.17
2017-03-05T04:27:06.025Z,987.14
2017-03-05T04:28:06.043Z,987.21
2017-03-05T04:29:06.078Z,987.22
2017-03-05T04:30:06.075Z,987.27
2017-03-05T04:31:06.097Z,987.27
2017-03-05T04:32:06.108Z,987.32
2017-03-05T04:33:06.141Z,987.29
2017-03-05T04:34:06.138Z,987.34
2017-03-05T04:35:06.175Z,987.34
2017-03-05T04:36:06.172Z,987.38
2017-03-05T04:37:06.213Z,987.34
2017-03-05T04:38:06.204Z,987.39
2017-03-05T04:39:06.243Z,987.4
2017-03-05T04:40:06.236Z,987.43
2017-03-05T04:41:06.274Z,987.48
2017-03-05T04:42:06.269Z,987.47
2017-03-05T04:43:06.304Z,987.52
2017-03-05T04:44:06.302Z,987.5
2017-03-05T04:45:06.323Z,987.53
2017-03-05T04:46:06.335Z,987.56
2017-03-05T04:47:06.359Z,987.5
2017-03-05T04:48:06.366Z,987.51
2017-03-05T04:49:06.382Z,987.54
2017-03-05T04:50:06.398Z,987.51
2017-03-05T04:51:06.414Z,987.54
2017-03-05T04:52:06.431Z,987.52
2017-03-05T04:53:06.470Z,987.54
2017-03-05T04:54:06.464Z,987.6
2017-03-05T04:55:06.498Z,987.57
2017-03-05T04:56:06.495Z,987.59
2017-03-05T04:57:06.535Z,987.6
2017-03-05T04:58:06.530Z,987.64
2017-03-05T04:59:06.562Z,987.61
2017-03-05T05:00:06.560Z,987.68
2017-03-05T05:01:06.579Z,987.7
2017-03-05T05:02:06.593Z,987.78
2017-03-05T05:03:06.627Z,987.75
2017-03-05T05:04:06.624Z,987.74
2017-03-05T05:05:06.663Z,987.75
2017-03-05T05:06:06.658Z,987.75
2017-03-05T05:07:06.697Z,987.79
2017-03-05T05:08:06.691Z,987.78
2017-03-05T05:09:06.706Z,987.8
2017-03-05T05:10:06.723Z,987.76
2017-03-05T05:11:06.738Z,987.79
2017-03-05T05:12:06.764Z,987.84
2017-03-05T05:13:06.828Z,987.89
2017-03-05T05:14:13.056Z,987.91
2017-03-05T05:15:06.803Z,987.9
2017-03-05T05:16:06.821Z,987.89
2017-03-05T05:17:06.836Z,987.9
2017-03-05T05:18:06.852Z,987.86
2017-03-05T05:19:06.869Z,987.98
2017-03-05T05:20:06.885Z,987.97
2017-03-05T05:21:06.900Z,987.99
2017-03-05T05:22:06.916Z,988
2017-03-05T05:23:06.932Z,988.03
2017-03-05T05:24:06.950Z,988.05
2017-03-05T05:25:06.984Z,988.1
2017-03-05T05:26:06.981Z,988.04
2017-03-05T05:27:07.008Z,988.1
2017-03-05T05:28:07.014Z,988.13
2017-03-05T05:29:07.040Z,988.16
2017-03-05T05:30:07.046Z,988.15
2017-03-05T05:31:07.087Z,988.14
2017-03-05T05:32:07.079Z,988.19
2017-03-05T05:33:07.094Z,988.22
2017-03-05T05:34:07.111Z,988.31
2017-03-05T05:35:07.129Z,988.31
2017-03-05T05:36:07.143Z,988.3
2017-03-05T05:37:07.160Z,988.35
2017-03-05T05:38:07.225Z,988.35
2017-03-05T05:39:07.192Z,988.36
2017-03-05T05:40:07.207Z,988.44
2017-03-05T05:41:07.226Z,988.38
2017-03-05T05:42:07.238Z,988.39
2017-03-05T05:43:07.258Z,988.42
2017-03-05T05:44:07.275Z,988.42
2017-03-05T05:45:07.290Z,988.52
2017-03-05T05:46:07.304Z,988.57
2017-03-05T05:47:07.322Z,988.59
2017-03-05T05:48:07.337Z,988.54
2017-03-05T05:49:07.352Z,988.64
2017-03-05T05:50:07.369Z,988.64
2017-03-05T05:51:07.403Z,988.72
2017-03-05T05:52:07.403Z,988.72
2017-03-05T05:53:07.817Z,988.76
2017-03-05T05:54:07.432Z,988.78
2017-03-05T05:55:07.458Z,988.85
2017-03-05T05:56:07.466Z,988.87
2017-03-05T05:57:07.498Z,988.89
2017-03-05T05:58:07.501Z,988.87
2017-03-05T05:59:07.539Z,988.93
2017-03-05T06:00:07.529Z,988.9
2017-03-05T06:01:07.568Z,988.99
2017-03-05T06:02:07.561Z,989.07
2017-03-05T06:03:07.610Z,989.07
2017-03-05T06:04:07.594Z,989.04
2017-03-05T06:05:07.610Z,989.08
2017-03-05T06:06:07.627Z,989.06
2017-03-05T06:07:07.668Z,989.05
2017-03-05T06:08:07.659Z,989.04
2017-03-05T06:09:07.690Z,989.07
2017-03-05T06:10:07.690Z,989.13
2017-03-05T06:11:07.724Z,989.15
2017-03-05T06:12:07.722Z,989.18
2017-03-05T06:13:07.869Z,989.26
2017-03-05T06:14:07.777Z,989.21
2017-03-05T06:15:07.873Z,989.24
2017-03-05T06:16:07.787Z,989.3
2017-03-05T06:17:07.803Z,989.28
2017-03-05T06:18:07.819Z,989.34
2017-03-05T06:19:07.837Z,989.38
2017-03-05T06:20:07.852Z,989.42
2017-03-05T06:21:07.885Z,989.42
2017-03-05T06:22:07.884Z,989.5
2017-03-05T06:23:07.921Z,989.5
2017-03-05T06:24:07.915Z,989.51
2017-03-05T06:25:07.949Z,989.54
2017-03-05T06:26:07.947Z,989.54
2017-03-05T06:27:07.982Z,989.58
2017-03-05T06:28:07.981Z,989.56
2017-03-05T06:29:08.001Z,989.6
2017-03-05T06:30:08.012Z,989.58
2017-03-05T06:31:08.046Z,989.6
2017-03-05T06:32:08.044Z,989.56
2017-03-05T06:33:08.083Z,989.61
2017-03-05T06:34:08.076Z,989.58
2017-03-05T06:35:08.104Z,989.68
2017-03-05T06:36:08.109Z,989.78
2017-03-05T06:37:08.149Z,989.78
2017-03-05T06:38:08.140Z,989.71
2017-03-05T06:39:08.180Z,989.83
2017-03-05T06:40:08.174Z,989.89
2017-03-05T06:41:08.207Z,989.95
2017-03-05T06:42:08.204Z,989.94
2017-03-05T06:43:08.238Z,989.95
2017-03-05T06:44:08.844Z,990.02
2017-03-05T06:45:08.351Z,990.09
2017-03-05T06:46:08.268Z,990.09
2017-03-05T06:47:08.285Z,990.05
2017-03-05T06:48:08.302Z,990.15
2017-03-05T06:49:08.318Z,990.12
2017-03-05T06:50:08.334Z,990.13
2017-03-05T06:51:08.351Z,990.18
2017-03-05T06:52:08.366Z,990.24
2017-03-05T06:53:08.381Z,990.35
2017-03-05T06:54:08.399Z,990.25
2017-03-05T06:55:08.412Z,990.36
2017-03-05T06:56:08.430Z,990.33
2017-03-05T06:57:08.446Z,990.4
2017-03-05T06:58:08.461Z,990.44
2017-03-05T06:59:08.477Z,990.31
2017-03-05T07:00:08.591Z,990.46
2017-03-05T07:01:08.531Z,990.44
2017-03-05T07:02:08.527Z,990.5
2017-03-05T07:03:08.561Z,990.56
2017-03-05T07:04:08.559Z,990.6
2017-03-05T07:05:08.574Z,990.57
2017-03-05T07:06:08.592Z,990.61
2017-03-05T07:07:08.608Z,990.68
2017-03-05T07:08:08.622Z,990.66
2017-03-05T07:09:08.638Z,990.63
2017-03-05T07:10:08.653Z,990.68
2017-03-05T07:11:08.670Z,990.65
2017-03-05T07:12:08.686Z,990.72
2017-03-05T07:13:08.704Z,990.74
2017-03-05T07:14:08.718Z,990.77
2017-03-05T07:15:08.755Z,990.79
2017-03-05T07:16:08.752Z,990.77
2017-03-05T07:17:08.786Z,990.8
2017-03-05T07:18:08.782Z,990.78
2017-03-05T07:19:08.816Z,990.84
2017-03-05T07:20:08.816Z,990.79
2017-03-05T07:21:08.831Z,990.84
2017-03-05T07:22:08.847Z,990.84
2017-03-05T07:23:08.863Z,990.89
2017-03-05T07:24:08.879Z,990.89
2017-03-05T07:25:08.914Z,990.93
2017-03-05T07:26:08.912Z,990.89
2017-03-05T07:27:08.927Z,990.95
2017-03-05T07:28:08.944Z,990.97
2017-03-05T07:29:08.979Z,991.03
2017-03-05T07:30:08.975Z,991.01
2017-03-05T07:31:08.999Z,991.04
2017-03-05T07:32:09.008Z,991.01
2017-03-05T07:33:09.043Z,991.04
2017-03-05T07:34:09.038Z,991.05
2017-03-05T07:35:09.076Z,991.01
2017-03-05T07:36:09.073Z,991.04
2017-03-05T07:37:09.107Z,991.01
2017-03-05T07:38:09.105Z,990.96
2017-03-05T07:39:09.131Z,990.99
2017-03-05T07:40:09.135Z,991.01
2017-03-05T07:41:09.166Z,991.02
2017-03-05T07:42:09.169Z,991.02
2017-03-05T07:43:09.204Z,991.02
2017-03-05T07:44:09.200Z,991.03
2017-03-05T07:45:09.235Z,991.05
2017-03-05T07:46:09.233Z,991.04
2017-03-05T07:47:09.262Z,991.08
2017-03-05T07:48:09.263Z,991.09
2017-03-05T07:49:09.304Z,991.06
2017-03-05T07:50:09.296Z,991.02
2017-03-05T07:51:09.338Z,991.06
2017-03-05T07:52:09.328Z,991.05
2017-03-05T07:53:09.363Z,991.1
2017-03-05T07:54:09.362Z,991.12
2017-03-05T07:55:09.412Z,991.1
2017-03-05T07:56:09.394Z,991.11
2017-03-05T07:57:09.428Z,991.14
2017-03-05T07:58:09.426Z,991.2
2017-03-05T07:59:09.459Z,991.19
2017-03-05T08:00:09.456Z,991.23
2017-03-05T08:01:09.500Z,991.25
2017-03-05T08:02:09.487Z,991.27
2017-03-05T08:03:09.523Z,991.28
2017-03-05T08:04:09.521Z,991.26
2017-03-05T08:05:09.556Z,991.28
2017-03-05T08:06:09.555Z,991.27
2017-03-05T08:07:09.587Z,991.27
2017-03-05T08:08:09.585Z,991.3
2017-03-05T08:09:09.627Z,991.26
2017-03-05T08:10:09.619Z,991.28
2017-03-05T08:11:09.651Z,991.28
2017-03-05T08:12:09.651Z,991.26
2017-03-05T08:13:09.675Z,991.25
2017-03-05T08:14:09.682Z,991.24
2017-03-05T08:15:09.732Z,991.23
2017-03-05T08:16:09.713Z,991.23
2017-03-05T08:17:09.730Z,991.26
2017-03-05T08:18:09.746Z,991.29
2017-03-05T08:19:09.792Z,991.22
2017-03-05T08:20:09.781Z,991.22
2017-03-05T08:21:09.816Z,991.28
2017-03-05T08:22:09.813Z,991.23
2017-03-05T08:23:09.845Z,991.22
2017-03-05T08:24:11.273Z,991.22
2017-03-05T08:25:09.878Z,991.24
2017-03-05T08:26:09.878Z,991.25
2017-03-05T08:27:09.900Z,991.23
2017-03-05T08:28:09.908Z,991.24
2017-03-05T08:29:12.958Z,991.24
2017-03-05T08:30:09.940Z,991.27
2017-03-05T08:31:09.977Z,991.24
2017-03-05T08:32:09.973Z,991.26
2017-03-05T08:33:10.012Z,991.26
2017-03-05T08:34:10.005Z,991.26
2017-03-05T08:35:10.037Z,991.27
2017-03-05T08:36:10.039Z,991.24
2017-03-05T08:37:10.075Z,991.24
2017-03-05T08:38:10.072Z,991.28
2017-03-05T08:39:10.116Z,991.27
2017-03-05T08:40:10.105Z,991.31
2017-03-05T08:41:10.140Z,991.32
2017-03-05T08:42:10.136Z,991.29
2017-03-05T08:43:10.171Z,991.35
2017-03-05T08:44:10.171Z,991.33
2017-03-05T08:45:10.192Z,991.34
2017-03-05T08:46:10.202Z,991.34
2017-03-05T08:47:10.219Z,991.33
2017-03-05T08:48:10.234Z,991.31
2017-03-05T08:49:10.251Z,991.35
2017-03-05T08:50:10.269Z,991.34
2017-03-05T08:51:10.285Z,991.32
2017-03-05T08:52:10.301Z,991.34
2017-03-05T08:53:10.316Z,991.3
2017-03-05T08:54:10.334Z,991.31
2017-03-05T08:55:10.375Z,991.27
2017-03-05T08:56:10.365Z,991.32
2017-03-05T08:57:10.401Z,991.29
2017-03-05T08:58:10.400Z,991.25
2017-03-05T08:59:10.438Z,991.21
2017-03-05T09:00:10.433Z,991.24
2017-03-05T09:01:10.479Z,991.22
2017-03-05T09:02:10.466Z,991.25
2017-03-05T09:03:10.505Z,991.27
2017-03-05T09:04:10.496Z,991.26
2017-03-05T09:05:10.530Z,991.27
2017-03-05T09:06:10.531Z,991.34
2017-03-05T09:07:10.546Z,991.38
2017-03-05T09:08:10.563Z,991.31
2017-03-05T09:09:10.579Z,991.34
2017-03-05T09:10:10.601Z,991.34
2017-03-05T09:11:10.622Z,991.32
2017-03-05T09:12:10.630Z,991.32
2017-03-05T09:13:10.665Z,991.38
2017-03-05T09:14:10.662Z,991.33
2017-03-05T09:15:10.696Z,991.25
2017-03-05T09:16:10.696Z,991.27
2017-03-05T09:17:10.732Z,991.29
2017-03-05T09:18:10.728Z,991.24
2017-03-05T09:19:10.787Z,991.15
2017-03-05T09:20:10.763Z,991.21
2017-03-05T09:21:10.778Z,991.22
2017-03-05T09:22:10.794Z,991.19
2017-03-05T09:23:10.838Z,991.2
2017-03-05T09:24:10.828Z,991.19
2017-03-05T09:25:10.856Z,991.19
2017-03-05T09:26:10.863Z,991.22
2017-03-05T09:27:10.880Z,991.23
2017-03-05T09:28:10.895Z,991.21
2017-03-05T09:29:10.927Z,991.15
2017-03-05T09:30:10.929Z,991.23
2017-03-05T09:31:10.962Z,991.19
2017-03-05T09:32:10.961Z,991.21
2017-03-05T09:33:11.002Z,991.23
2017-03-05T09:34:10.996Z,991.15
2017-03-05T09:35:11.029Z,991.21
2017-03-05T09:36:11.028Z,991.26
2017-03-05T09:37:11.076Z,991.25
2017-03-05T09:38:11.063Z,991.26
2017-03-05T09:39:11.079Z,991.28
2017-03-05T09:40:11.096Z,991.33
2017-03-05T09:41:11.171Z,991.31
2017-03-05T09:42:11.164Z,991.25
2017-03-05T09:43:11.172Z,991.33
2017-03-05T09:44:11.458Z,991.34
2017-03-05T09:45:11.190Z,991.31
2017-03-05T09:46:11.197Z,991.3
2017-03-05T09:47:11.352Z,991.35
2017-03-05T09:48:11.344Z,991.37
2017-03-05T09:49:11.352Z,991.27
2017-03-05T09:50:11.360Z,991.31
2017-03-05T09:51:11.283Z,991.37
2017-03-05T09:52:11.326Z,991.37
2017-03-05T09:53:11.406Z,991.38
2017-03-05T09:54:11.448Z,991.4
2017-03-05T09:55:11.434Z,991.4
2017-03-05T09:56:11.433Z,991.42
2017-03-05T09:57:11.466Z,991.42
2017-03-05T09:58:11.475Z,991.45
2017-03-05T09:59:11.483Z,991.37
2017-03-05T10:00:11.431Z,991.41
2017-03-05T10:01:11.490Z,991.4
2017-03-05T10:02:11.501Z,991.38
2017-03-05T10:03:11.484Z,991.41
2017-03-05T10:04:11.500Z,991.36
2017-03-05T10:05:11.516Z,991.38
2017-03-05T10:06:11.534Z,991.4
2017-03-05T10:07:11.552Z,991.4
2017-03-05T10:08:11.578Z,991.42
2017-03-05T10:09:11.585Z,991.37
2017-03-05T10:10:11.600Z,991.45
2017-03-05T10:11:11.620Z,991.44
2017-03-05T10:12:11.637Z,991.46
2017-03-05T10:13:11.655Z,991.41
2017-03-05T10:14:11.673Z,991.47
2017-03-05T10:15:11.689Z,991.46
2017-03-05T10:16:11.706Z,991.41
2017-03-05T10:17:11.723Z,991.43
2017-03-05T10:18:11.741Z,991.42
2017-03-05T10:19:11.759Z,991.41
2017-03-05T10:20:11.775Z,991.41
2017-03-05T10:21:11.793Z,991.41
2017-03-05T10:22:11.812Z,991.31
2017-03-05T10:23:11.826Z,991.37
2017-03-05T10:24:11.843Z,991.29
2017-03-05T10:25:11.862Z,991.36
2017-03-05T10:26:11.880Z,991.34
2017-03-05T10:27:11.896Z,991.29
2017-03-05T10:28:11.913Z,991.31
2017-03-05T10:29:11.932Z,991.29
2017-03-05T10:30:11.948Z,991.32
2017-03-05T10:31:11.966Z,991.35
2017-03-05T10:32:11.985Z,991.32
2017-03-05T10:33:12.001Z,991.34
2017-03-05T10:34:12.019Z,991.34
2017-03-05T10:35:12.036Z,991.34
2017-03-05T10:36:12.054Z,991.31
2017-03-05T10:37:12.073Z,991.27
2017-03-05T10:38:12.088Z,991.28
2017-03-05T10:39:12.104Z,991.34
2017-03-05T10:40:12.124Z,991.33
2017-03-05T10:41:12.142Z,991.32
2017-03-05T10:42:12.159Z,991.25
2017-03-05T10:43:12.176Z,991.33
2017-03-05T10:44:12.194Z,991.34
2017-03-05T10:45:12.211Z,991.39
2017-03-05T10:46:12.235Z,991.32
2017-03-05T10:47:12.249Z,991.29
2017-03-05T10:48:12.267Z,991.26
2017-03-05T10:49:12.282Z,991.28
2017-03-05T10:50:12.300Z,991.28
2017-03-05T10:51:12.319Z,991.3
2017-03-05T10:52:12.338Z,991.28
2017-03-05T10:53:12.353Z,991.3
2017-03-05T10:54:12.374Z,991.34
2017-03-05T10:55:12.391Z,991.29
2017-03-05T10:56:12.409Z,991.27
2017-03-05T10:57:12.425Z,991.3
2017-03-05T10:58:12.443Z,991.24
2017-03-05T10:59:12.462Z,991.28
2017-03-05T11:00:12.479Z,991.28
2017-03-05T11:01:12.497Z,991.3
2017-03-05T11:02:12.514Z,991.31
2017-03-05T11:03:12.533Z,991.31
2017-03-05T11:04:12.549Z,991.36
2017-03-05T11:05:12.568Z,991.31
2017-03-05T11:06:12.586Z,991.37
2017-03-05T11:07:12.603Z,991.31
2017-03-05T11:08:12.622Z,991.37
2017-03-05T11:09:12.640Z,991.33
2017-03-05T11:10:12.658Z,991.37
2017-03-05T11:11:12.675Z,991.37
2017-03-05T11:12:12.693Z,991.38
2017-03-05T11:13:12.713Z,991.39
2017-03-05T11:14:12.730Z,991.43
2017-03-05T11:15:12.755Z,991.45
2017-03-05T11:16:12.765Z,991.42
2017-03-05T11:17:12.783Z,991.47
2017-03-05T11:18:12.802Z,991.5
2017-03-05T11:19:12.820Z,991.46
2017-03-05T11:20:12.838Z,991.44
2017-03-05T11:21:12.857Z,991.42
2017-03-05T11:22:12.877Z,991.42
2017-03-05T11:23:12.891Z,991.39
2017-03-05T11:24:12.913Z,991.44
2017-03-05T11:25:12.929Z,991.45
2017-03-05T11:26:12.947Z,991.46
2017-03-05T11:27:12.969Z,991.41
2017-03-05T11:28:12.985Z,991.47
2017-03-05T11:29:13.003Z,991.49
2017-03-05T11:30:13.022Z,991.47
2017-03-05T11:31:13.038Z,991.4
2017-03-05T11:32:13.057Z,991.43
2017-03-05T11:33:13.077Z,991.48
2017-03-05T11:34:13.095Z,991.46
2017-03-05T11:35:13.114Z,991.47
2017-03-05T11:36:13.132Z,991.39
2017-03-05T11:37:13.149Z,991.41
2017-03-05T11:38:13.167Z,991.39
2017-03-05T11:39:13.187Z,991.38
2017-03-05T11:40:13.205Z,991.39
2017-03-05T11:41:13.223Z,991.38
2017-03-05T11:42:13.243Z,991.36
2017-03-05T11:43:13.262Z,991.39
2017-03-05T11:44:13.278Z,991.39
2017-03-05T11:45:13.297Z,991.36
2017-03-05T11:46:13.318Z,991.35
2017-03-05T11:47:13.335Z,991.36
2017-03-05T11:48:13.354Z,991.33
2017-03-05T11:49:13.372Z,991.33
2017-03-05T11:50:13.391Z,991.32
2017-03-05T11:51:13.409Z,991.33
2017-03-05T11:52:13.428Z,991.35
2017-03-05T11:53:13.446Z,991.33
2017-03-05T11:54:13.466Z,991.31
2017-03-05T11:55:13.485Z,991.3
2017-03-05T11:56:13.503Z,991.26
2017-03-05T11:57:13.521Z,991.28
2017-03-05T11:58:13.539Z,991.27
2017-03-05T11:59:13.558Z,991.23
2017-03-05T12:00:13.577Z,991.29
2017-03-05T12:01:13.595Z,991.24
2017-03-05T12:02:13.613Z,991.23
2017-03-05T12:03:13.632Z,991.2
2017-03-05T12:04:13.652Z,991.21
2017-03-05T12:05:13.671Z,991.17
2017-03-05T12:06:13.688Z,991.17
2017-03-05T12:07:13.708Z,991.16
2017-03-05T12:08:13.725Z,991.15
2017-03-05T12:09:13.745Z,991.14
2017-03-05T12:10:13.763Z,991.11
2017-03-05T12:11:13.783Z,991.12
2017-03-05T12:12:13.801Z,991.13
2017-03-05T12:13:13.832Z,991.09
2017-03-05T12:14:13.837Z,991.1
2017-03-05T12:15:13.855Z,991.12
2017-03-05T12:16:13.874Z,991.12
2017-03-05T12:17:13.892Z,991.1
2017-03-05T12:18:13.911Z,991.09
2017-03-05T12:19:13.931Z,991.09
2017-03-05T12:20:13.949Z,991.06
2017-03-05T12:21:13.968Z,991.03
2017-03-05T12:22:13.987Z,991
2017-03-05T12:23:14.005Z,991
2017-03-05T12:24:14.024Z,990.99
2017-03-05T12:25:14.043Z,990.97
2017-03-05T12:26:14.061Z,990.96
2017-03-05T12:27:14.082Z,990.94
2017-03-05T12:28:14.100Z,990.91
2017-03-05T12:29:14.120Z,990.91
2017-03-05T12:30:14.136Z,990.89
2017-03-05T12:31:14.154Z,990.9